createdAt,value
2017-11-24T00:00:48.637Z,59.30
2017-11-24T00:03:16.126Z,59.30
2017-11-24T00:05:43.657Z,60.10
2017-11-24T00:08:11.921Z,59.80
2017-11-24T00:10:39.458Z,59.80
2017-11-24T00:13:06.990Z,59.40
2017-11-24T00:15:34.478Z,59.40
2017-11-24T00:18:02.029Z,59.40
2017-11-24T00:20:29.512Z,59.40
2017-11-24T00:22:57.047Z,59.40
2017-11-24T00:25:25.306Z,59.30
2017-11-24T00:27:52.806Z,59.40
2017-11-24T00:30:21.126Z,58.30
2017-11-24T00:32:48.625Z,58.20
2017-11-24T00:35:16.897Z,57.90
2017-11-24T00:37:44.424Z,57.90
2017-11-24T00:40:11.953Z,57.70
2017-11-24T00:42:39.448Z,57.70
2017-11-24T00:45:06.985Z,58.00
2017-11-24T00:47:34.482Z,57.60
2017-11-24T00:50:02.028Z,57.60
2017-11-24T00:52:29.524Z,57.50
2017-11-24T00:54:57.781Z,57.80
2017-11-24T00:57:25.324Z,57.80
2017-11-24T00:59:52.857Z,57.70
2017-11-24T01:02:20.356Z,57.70
2017-11-24T01:04:48.622Z,57.70
2017-11-24T01:07:16.916Z,58.00
2017-11-24T01:09:45.173Z,58.30
2017-11-24T01:12:12.705Z,58.30
2017-11-24T01:14:40.261Z,58.70
2017-11-24T01:17:07.752Z,58.70
2017-11-24T01:19:36.012Z,59.20
2017-11-24T01:22:03.568Z,59.20
2017-11-24T01:24:31.098Z,59.70
2017-11-24T01:26:58.625Z,59.70
2017-11-24T01:29:26.137Z,59.50
2017-11-24T01:31:53.665Z,59.20
2017-11-24T01:34:21.156Z,58.90
2017-11-24T01:36:48.649Z,58.60
2017-11-24T01:39:16.927Z,58.30
2017-11-24T01:41:45.180Z,58.40
2017-11-24T01:44:12.769Z,58.40
2017-11-24T01:46:40.264Z,58.50
2017-11-24T01:49:08.526Z,58.40
2017-11-24T01:51:36.059Z,58.50
2017-11-24T01:54:03.567Z,58.20
2017-11-24T01:56:31.098Z,58.10
2017-11-24T01:58:58.614Z,58.70
2017-11-24T02:01:26.903Z,58.00
2017-11-24T02:03:54.407Z,58.00
2017-11-24T02:06:21.892Z,58.10
2017-11-24T02:08:50.173Z,58.20
2017-11-24T02:11:18.430Z,58.40
2017-11-24T02:13:45.945Z,58.40
2017-11-24T02:16:13.434Z,59.40
2017-11-24T02:18:40.956Z,60.40
2017-11-24T02:21:08.458Z,61.60
2017-11-24T02:23:35.985Z,61.80
2017-11-24T02:26:03.479Z,61.50
2017-11-24T02:28:30.965Z,61.30
2017-11-24T02:30:58.485Z,61.90
2017-11-24T02:33:26.013Z,61.10
2017-11-24T02:35:53.501Z,61.30
2017-11-24T02:38:20.991Z,61.00
2017-11-24T02:40:48.522Z,60.90
2017-11-24T02:43:16.780Z,60.90
2017-11-24T02:45:44.336Z,60.90
2017-11-24T02:48:11.951Z,60.80
2017-11-24T02:50:39.491Z,60.90
2017-11-24T02:53:07.811Z,60.40
2017-11-24T02:55:35.379Z,60.40
2017-11-24T02:58:02.938Z,60.50
2017-11-24T03:00:30.472Z,60.50
2017-11-24T03:02:58.044Z,60.50
2017-11-24T03:05:26.311Z,60.80
2017-11-24T03:07:53.827Z,60.70
2017-11-24T03:10:22.089Z,61.30
2017-11-24T03:12:50.373Z,61.30
2017-11-24T03:15:18.637Z,61.70
2017-11-24T03:17:46.943Z,61.40
2017-11-24T03:20:14.445Z,61.40
2017-11-24T03:22:41.934Z,61.60
2017-11-24T03:25:10.312Z,62.30
2017-11-24T03:27:38.568Z,61.90
2017-11-24T03:30:06.063Z,61.90
2017-11-24T03:32:33.576Z,62.40
2017-11-24T03:35:01.070Z,63.60
2017-11-24T03:37:28.567Z,62.50
2017-11-24T03:39:56.074Z,62.80
2017-11-24T03:42:24.341Z,63.20
2017-11-24T03:44:52.597Z,63.50
2017-11-24T03:47:20.095Z,63.50
2017-11-24T03:49:47.592Z,64.60
2017-11-24T03:52:15.087Z,65.60
2017-11-24T03:54:43.361Z,64.60
2017-11-24T03:57:11.631Z,65.00
2017-11-24T03:59:39.889Z,65.10
2017-11-24T04:02:07.396Z,65.00
2017-11-24T04:04:34.885Z,65.20
2017-11-24T04:07:02.392Z,64.70
2017-11-24T04:09:30.648Z,64.90
2017-11-24T04:11:58.904Z,65.10
2017-11-24T04:14:26.417Z,65.00
2017-11-24T04:16:53.908Z,65.30
2017-11-24T04:19:21.397Z,65.50
2017-11-24T04:21:49.773Z,65.40
2017-11-24T04:24:18.048Z,65.70
2017-11-24T04:26:46.309Z,65.70
2017-11-24T04:29:14.693Z,65.30
2017-11-24T04:31:43.002Z,64.70
2017-11-24T04:34:10.492Z,64.70
2017-11-24T04:36:38.017Z,65.40
2017-11-24T04:39:05.518Z,65.30
2017-11-24T04:41:33.019Z,65.90
2017-11-24T04:44:00.573Z,65.90
2017-11-24T04:46:28.887Z,65.80
2017-11-24T04:48:56.375Z,65.70
2017-11-24T04:51:23.921Z,65.80
2017-11-24T04:53:51.428Z,65.80
2017-11-24T04:56:18.940Z,65.90
2017-11-24T04:58:46.465Z,65.90
2017-11-24T05:01:13.968Z,65.60
2017-11-24T05:03:41.489Z,65.20
2017-11-24T05:06:09.005Z,65.10
2017-11-24T05:08:37.293Z,65.00
2017-11-24T05:11:04.792Z,65.00
2017-11-24T05:13:32.349Z,64.80
2017-11-24T05:15:59.845Z,64.60
2017-11-24T05:18:28.134Z,64.10
2017-11-24T05:20:55.648Z,64.10
2017-11-24T05:23:23.164Z,64.00
2017-11-24T05:25:50.739Z,64.00
2017-11-24T05:28:18.274Z,64.10
2017-11-24T05:30:45.775Z,64.00
2017-11-24T05:33:13.282Z,63.60
2017-11-24T05:35:40.814Z,63.60
2017-11-24T05:38:09.110Z,63.40
2017-11-24T05:40:36.636Z,63.40
2017-11-24T05:43:04.917Z,63.20
2017-11-24T05:45:33.230Z,63.00
2017-11-24T05:48:00.758Z,63.00
2017-11-24T05:50:29.147Z,63.10
2017-11-24T05:52:56.639Z,63.10
2017-11-24T05:55:24.141Z,63.20
2017-11-24T05:57:52.447Z,63.10
2017-11-24T06:00:19.954Z,63.10
2017-11-24T06:02:47.493Z,63.10
2017-11-24T06:05:20.205Z,63.00
2017-11-24T06:07:47.721Z,63.10
2017-11-24T06:10:15.240Z,63.20
2017-11-24T06:12:42.728Z,63.30
2017-11-24T06:15:10.253Z,63.20
2017-11-24T06:17:37.811Z,63.30
2017-11-24T06:20:05.370Z,63.30
2017-11-24T06:22:32.866Z,63.20
2017-11-24T06:25:00.877Z,63.00
2017-11-24T06:27:29.268Z,62.50
2017-11-24T06:29:57.516Z,62.50
2017-11-24T06:32:25.008Z,62.50
2017-11-24T06:34:53.186Z,62.40
2017-11-24T06:37:20.737Z,62.50
2017-11-24T06:39:48.256Z,62.30
2017-11-24T06:42:23.696Z,62.60
2017-11-24T06:45:05.127Z,62.60
2017-11-24T06:47:38.680Z,63.00
2017-11-24T06:50:06.302Z,62.90
2017-11-24T06:52:33.800Z,63.00
2017-11-24T06:55:01.823Z,63.10
2017-11-24T06:57:32.051Z,63.30
2017-11-24T07:00:01.570Z,63.30
2017-11-24T07:02:30.040Z,63.30
2017-11-24T07:04:59.188Z,63.30
2017-11-24T07:07:35.519Z,63.10
2017-11-24T07:10:08.954Z,63.10
2017-11-24T07:12:37.042Z,63.60
2017-11-24T07:15:04.547Z,62.80
2017-11-24T07:17:33.753Z,62.40
2017-11-24T07:20:01.473Z,62.40
2017-11-24T07:22:29.507Z,62.40
2017-11-24T07:24:57.189Z,62.40
2017-11-24T07:27:24.733Z,62.50
2017-11-24T07:29:52.984Z,62.30
2017-11-24T07:32:20.483Z,62.30
2017-11-24T07:34:48.013Z,62.40
2017-11-24T07:37:15.506Z,62.60
2017-11-24T07:39:43.006Z,62.90
2017-11-24T07:42:11.286Z,62.70
2017-11-24T07:44:38.957Z,62.70
2017-11-24T07:47:07.275Z,63.10
2017-11-24T07:49:34.775Z,63.10
2017-11-24T07:52:03.036Z,63.00
2017-11-24T07:54:31.326Z,62.80
2017-11-24T07:56:58.821Z,62.80
2017-11-24T07:59:27.082Z,63.20
2017-11-24T08:01:55.377Z,63.10
2017-11-24T08:04:22.892Z,63.10
2017-11-24T08:06:50.394Z,62.80
2017-11-24T08:09:17.894Z,62.60
2017-11-24T08:11:45.408Z,62.50
2017-11-24T08:14:12.918Z,62.40
2017-11-24T08:16:40.449Z,62.30
2017-11-24T08:19:07.933Z,62.00
2017-11-24T08:21:35.456Z,61.40
2017-11-24T08:24:02.953Z,61.30
2017-11-24T08:26:30.440Z,61.20
2017-11-24T08:28:58.723Z,60.90
2017-11-24T08:31:26.208Z,60.90
2017-11-24T08:34:03.548Z,60.70
2017-11-24T08:36:31.919Z,60.60
2017-11-24T08:39:00.181Z,60.80
2017-11-24T08:41:27.740Z,60.70
2017-11-24T08:43:55.227Z,60.80
2017-11-24T08:46:28.463Z,60.60
2017-11-24T08:49:01.808Z,60.60
2017-11-24T08:51:29.342Z,60.50
2017-11-24T08:53:57.638Z,59.60
2017-11-24T08:56:25.182Z,59.60
2017-11-24T08:58:53.448Z,59.70
2017-11-24T09:01:21.725Z,59.60
2017-11-24T09:03:50.039Z,59.60
2017-11-24T09:06:17.573Z,59.60
2017-11-24T09:08:45.082Z,59.40
2017-11-24T09:11:12.611Z,59.50
2017-11-24T09:13:40.105Z,59.60
2017-11-24T09:16:07.604Z,59.70
2017-11-24T09:18:35.230Z,59.80
2017-11-24T09:21:02.734Z,59.70
2017-11-24T09:23:30.261Z,60.00
2017-11-24T09:25:58.596Z,59.80
2017-11-24T09:28:26.088Z,59.70
2017-11-24T09:30:54.352Z,58.40
2017-11-24T09:33:21.878Z,59.00
2017-11-24T09:35:49.368Z,58.60
2017-11-24T09:38:16.866Z,59.00
2017-11-24T09:40:44.406Z,58.70
2017-11-24T09:43:12.670Z,58.30
2017-11-24T09:45:40.961Z,58.50
2017-11-24T09:48:09.330Z,57.90
2017-11-24T09:50:37.598Z,57.90
2017-11-24T09:53:05.873Z,57.80
2017-11-24T09:55:34.155Z,58.10
2017-11-24T09:58:02.426Z,58.40
2017-11-24T10:00:30.695Z,59.00
2017-11-24T10:02:58.985Z,58.90
2017-11-24T10:05:27.261Z,58.70
2017-11-24T10:07:55.560Z,58.10
2017-11-24T10:10:23.071Z,58.20
2017-11-24T10:12:50.565Z,58.20
2017-11-24T10:15:18.099Z,58.40
2017-11-24T10:17:46.367Z,57.30
2017-11-24T10:20:14.626Z,57.10
2017-11-24T10:22:42.166Z,57.10
2017-11-24T10:25:09.666Z,56.20
2017-11-24T10:27:37.945Z,57.00
2017-11-24T10:30:05.479Z,57.00
2017-11-24T10:32:32.996Z,56.50
2017-11-24T10:35:00.489Z,56.30
2017-11-24T10:37:27.995Z,55.70
2017-11-24T10:39:55.498Z,55.50
2017-11-24T10:42:23.013Z,55.10
2017-11-24T10:44:50.509Z,55.00
2017-11-24T10:47:17.992Z,54.70
2017-11-24T10:49:46.289Z,54.70
2017-11-24T10:52:13.804Z,54.70
2017-11-24T10:54:41.298Z,54.30
2017-11-24T10:57:08.913Z,53.70
2017-11-24T10:59:36.424Z,53.60
2017-11-24T11:02:03.924Z,53.10
2017-11-24T11:04:31.490Z,52.70
2017-11-24T11:06:59.270Z,53.40
2017-11-24T11:09:27.545Z,53.80
2017-11-24T11:11:55.844Z,53.60
2017-11-24T11:14:23.365Z,53.60
2017-11-24T11:16:50.863Z,54.10
2017-11-24T11:19:18.488Z,54.20
2017-11-24T11:21:45.985Z,54.10
2017-11-24T11:24:13.549Z,54.30
2017-11-24T11:26:41.060Z,53.90
2017-11-24T11:29:08.565Z,53.30
2017-11-24T11:31:36.072Z,53.30
2017-11-24T11:34:03.581Z,52.70
2017-11-24T11:36:31.430Z,52.70
2017-11-24T11:38:58.937Z,52.30
2017-11-24T11:41:26.522Z,51.90
2017-11-24T11:43:54.076Z,52.40
2017-11-24T11:46:22.351Z,52.70
2017-11-24T11:48:50.621Z,52.00
2017-11-24T11:51:18.760Z,51.90
2017-11-24T11:53:46.293Z,52.10
2017-11-24T11:56:13.828Z,51.90
2017-11-24T11:58:41.335Z,52.30
2017-11-24T12:01:08.984Z,52.70
2017-11-24T12:03:36.494Z,52.80
2017-11-24T12:06:04.777Z,52.90
2017-11-24T12:08:32.269Z,52.90
2017-11-24T12:10:59.761Z,52.60
2017-11-24T12:13:27.566Z,53.60
2017-11-24T12:15:55.062Z,53.90
2017-11-24T12:18:22.613Z,53.50
2017-11-24T12:20:50.111Z,53.40
2017-11-24T12:23:18.417Z,53.60
2017-11-24T12:25:45.929Z,53.60
2017-11-24T12:28:13.432Z,53.80
2017-11-24T12:30:40.924Z,53.90
2017-11-24T12:33:08.481Z,54.10
2017-11-24T12:35:35.985Z,54.20
2017-11-24T12:38:03.487Z,54.60
2017-11-24T12:40:31.103Z,54.70
2017-11-24T12:42:58.623Z,54.80
2017-11-24T12:45:26.114Z,54.80
2017-11-24T12:47:53.641Z,54.70
2017-11-24T12:50:21.166Z,54.70
2017-11-24T12:52:49.605Z,54.90
2017-11-24T12:55:17.113Z,55.20
2017-11-24T12:57:44.619Z,55.60
2017-11-24T13:00:12.964Z,55.70
2017-11-24T13:02:41.257Z,55.90
2017-11-24T13:05:09.586Z,56.50
2017-11-24T13:07:37.791Z,55.90
2017-11-24T13:10:06.075Z,56.00
2017-11-24T13:12:34.335Z,55.50
2017-11-24T13:15:02.441Z,55.50
2017-11-24T13:17:29.967Z,55.80
2017-11-24T13:19:57.490Z,56.00
2017-11-24T13:22:25.017Z,55.70
2017-11-24T13:24:52.558Z,55.90
2017-11-24T13:27:20.831Z,56.10
2017-11-24T13:29:49.111Z,56.20
2017-11-24T13:32:17.406Z,56.60
2017-11-24T13:34:45.182Z,56.60
2017-11-24T13:37:12.701Z,56.70
2017-11-24T13:39:40.956Z,57.00
2017-11-24T13:42:08.446Z,57.00
2017-11-24T13:44:35.966Z,56.90
2017-11-24T13:47:03.463Z,57.20
2017-11-24T13:49:30.966Z,57.30
2017-11-24T13:51:58.556Z,57.50
2017-11-24T13:54:26.831Z,58.30
2017-11-24T13:56:55.104Z,58.60
2017-11-24T13:59:23.387Z,58.70
2017-11-24T14:01:51.655Z,58.70
2017-11-24T14:04:19.955Z,59.00
2017-11-24T14:06:47.483Z,59.00
2017-11-24T14:09:14.972Z,59.20
2017-11-24T14:11:42.471Z,59.20
2017-11-24T14:14:09.989Z,59.20
2017-11-24T14:16:37.584Z,59.10
2017-11-24T14:19:05.097Z,59.00
2017-11-24T14:21:32.619Z,59.30
2017-11-24T14:24:00.914Z,60.20
2017-11-24T14:26:28.441Z,60.20
2017-11-24T14:28:56.704Z,60.50
2017-11-24T14:31:24.213Z,60.60
2017-11-24T14:33:51.837Z,60.80
2017-11-24T14:36:19.336Z,61.20
2017-11-24T14:38:46.841Z,61.00
2017-11-24T14:41:14.361Z,61.00
2017-11-24T14:43:41.864Z,61.40
2017-11-24T14:46:09.371Z,61.50
2017-11-24T14:48:36.979Z,61.80
2017-11-24T14:51:04.490Z,61.80
2017-11-24T14:53:31.994Z,62.10
2017-11-24T14:55:59.503Z,62.10
2017-11-24T14:58:27.033Z,62.30
2017-11-24T15:00:54.569Z,62.20
2017-11-24T15:03:22.087Z,62.60
2017-11-24T15:05:49.592Z,62.40
2017-11-24T15:08:17.096Z,62.70
2017-11-24T15:10:44.610Z,63.10
2017-11-24T15:13:12.886Z,63.40
2017-11-24T15:15:41.170Z,63.80
2017-11-24T15:18:09.495Z,63.20
2017-11-24T15:20:37.046Z,63.20
2017-11-24T15:23:04.571Z,63.30
2017-11-24T15:25:32.075Z,62.90
2017-11-24T15:27:59.599Z,62.90
2017-11-24T15:30:27.105Z,62.60
2017-11-24T15:32:54.608Z,62.50
2017-11-24T15:35:22.128Z,62.50
2017-11-24T15:37:49.643Z,62.40
2017-11-24T15:40:18.964Z,62.30
2017-11-24T15:42:47.227Z,62.40
2017-11-24T15:45:14.734Z,62.40
2017-11-24T15:47:42.263Z,62.30
2017-11-24T15:50:09.759Z,62.30
2017-11-24T15:52:37.267Z,62.70
2017-11-24T15:55:04.801Z,62.70
2017-11-24T15:57:32.302Z,63.10
2017-11-24T16:00:00.564Z,63.50
2017-11-24T16:02:28.186Z,63.30
2017-11-24T16:04:55.702Z,63.40
2017-11-24T16:07:23.966Z,62.90
2017-11-24T16:09:52.249Z,62.80
2017-11-24T16:12:20.532Z,63.10
2017-11-24T16:14:48.788Z,63.00
2017-11-24T16:17:16.298Z,63.00
2017-11-24T16:19:43.826Z,63.10
2017-11-24T16:22:11.346Z,63.10
2017-11-24T16:24:38.896Z,63.40
2017-11-24T16:27:06.393Z,63.20
2017-11-24T16:29:34.674Z,63.10
2017-11-24T16:32:02.194Z,63.10
2017-11-24T16:34:29.698Z,62.60
2017-11-24T16:36:57.226Z,62.60
2017-11-24T16:39:25.509Z,62.50
2017-11-24T16:41:53.914Z,62.30
2017-11-24T16:44:21.421Z,62.30
2017-11-24T16:46:48.996Z,62.40
2017-11-24T16:49:17.304Z,62.40
2017-11-24T16:51:44.820Z,62.50
2017-11-24T16:54:12.321Z,62.50
2017-11-24T16:56:39.847Z,62.50
2017-11-24T16:59:08.125Z,63.20
2017-11-24T17:01:36.456Z,62.70
2017-11-24T17:04:03.961Z,62.70
2017-11-24T17:06:31.466Z,62.30
2017-11-24T17:08:59.029Z,62.60
2017-11-24T17:11:28.171Z,63.00
2017-11-24T17:13:55.732Z,63.10
2017-11-24T17:16:24.005Z,62.20
2017-11-24T17:18:52.278Z,62.50
2017-11-24T17:21:19.820Z,62.40
2017-11-24T17:23:47.334Z,62.00
2017-11-24T17:26:15.652Z,61.80
2017-11-24T17:28:43.924Z,61.80
2017-11-24T17:31:11.478Z,61.80
2017-11-24T17:33:38.975Z,62.30
2017-11-24T17:36:06.490Z,62.20
2017-11-24T17:38:34.045Z,62.40
2017-11-24T17:41:01.565Z,63.00
2017-11-24T17:43:29.082Z,63.70
2017-11-24T17:45:57.385Z,64.60
2017-11-24T17:48:24.930Z,64.50
2017-11-24T17:50:52.460Z,64.60
2017-11-24T17:53:20.741Z,64.50
2017-11-24T17:55:49.035Z,64.40
2017-11-24T17:58:16.547Z,64.40
2017-11-24T18:00:44.202Z,64.00
2017-11-24T18:03:11.711Z,63.90
2017-11-24T18:05:39.219Z,64.20
2017-11-24T18:08:06.767Z,64.30
2017-11-24T18:10:34.276Z,65.10
2017-11-24T18:13:01.788Z,64.60
2017-11-24T18:15:29.319Z,64.50
2017-11-24T18:17:56.826Z,65.30
2017-11-24T18:20:25.133Z,67.90
2017-11-24T18:22:52.636Z,67.90
2017-11-24T18:25:20.183Z,68.80
2017-11-24T18:27:47.703Z,69.20
2017-11-24T18:30:15.219Z,70.20
2017-11-24T18:32:42.772Z,70.90
2017-11-24T18:35:10.363Z,71.80
2017-11-24T18:37:38.664Z,72.40
2017-11-24T18:40:06.183Z,72.40
2017-11-24T18:42:33.730Z,72.40
2017-11-24T18:45:01.998Z,73.20
2017-11-24T18:47:29.531Z,73.30
2017-11-24T18:49:57.062Z,73.60
2017-11-24T18:52:24.597Z,75.10
2017-11-24T18:54:52.357Z,75.50
2017-11-24T18:57:19.899Z,75.70
2017-11-24T18:59:48.183Z,76.00
2017-11-24T19:02:15.701Z,75.90
2017-11-24T19:04:43.461Z,76.30
2017-11-24T19:07:10.977Z,76.60
2017-11-24T19:09:38.508Z,76.90
2017-11-24T19:12:06.786Z,77.40
2017-11-24T19:14:34.795Z,77.40
2017-11-24T19:17:02.329Z,77.60
2017-11-24T19:19:29.831Z,77.80
2017-11-24T19:21:57.361Z,78.10
2017-11-24T19:24:24.869Z,78.30
2017-11-24T19:26:53.170Z,78.50
2017-11-24T19:29:20.674Z,78.40
2017-11-24T19:31:48.214Z,78.60
2017-11-24T19:34:15.721Z,78.40
2017-11-24T19:36:43.973Z,78.70
2017-11-24T19:39:11.517Z,78.70
2017-11-24T19:41:39.044Z,79.30
2017-11-24T19:44:06.573Z,78.70
2017-11-24T19:46:34.074Z,78.60
2017-11-24T19:49:01.683Z,77.70
2017-11-24T19:51:29.995Z,78.40
2017-11-24T19:53:57.557Z,78.30
2017-11-24T19:56:25.101Z,78.60
2017-11-24T19:58:52.853Z,78.60
2017-11-24T20:01:20.366Z,78.80
2017-11-24T20:03:47.860Z,78.30
2017-11-24T20:06:16.156Z,78.50
2017-11-24T20:08:43.651Z,78.50
2017-11-24T20:11:11.198Z,78.30
2017-11-24T20:13:43.422Z,77.90
2017-11-24T20:16:10.927Z,78.10
2017-11-24T20:18:38.412Z,77.90
2017-11-24T20:21:06.724Z,79.00
2017-11-24T20:23:34.745Z,78.60
2017-11-24T20:26:02.238Z,78.50
2017-11-24T20:28:29.755Z,78.30
2017-11-24T20:30:57.247Z,78.50
2017-11-24T20:33:24.791Z,76.90
2017-11-24T20:35:53.117Z,78.40
2017-11-24T20:38:20.617Z,78.40
2017-11-24T20:41:00.720Z,78.40
2017-11-24T20:43:28.245Z,78.30
2017-11-24T20:45:55.745Z,77.50
2017-11-24T20:48:23.336Z,76.90
2017-11-24T20:50:51.617Z,76.70
2017-11-24T20:53:19.157Z,76.50
2017-11-24T20:55:46.748Z,76.40
2017-11-24T20:58:15.016Z,77.20
2017-11-24T21:00:43.273Z,76.20
2017-11-24T21:03:10.844Z,76.20
2017-11-24T21:05:39.109Z,76.20
2017-11-24T21:08:06.682Z,76.20
2017-11-24T21:10:35.078Z,76.40
2017-11-24T21:13:02.593Z,76.30
2017-11-24T21:15:30.159Z,77.10
2017-11-24T21:17:57.741Z,77.10
2017-11-24T21:20:25.255Z,77.30
2017-11-24T21:22:52.804Z,77.10
2017-11-24T21:25:20.365Z,76.60
2017-11-24T21:27:47.900Z,77.30
2017-11-24T21:30:15.477Z,77.10
2017-11-24T21:32:43.013Z,76.80
2017-11-24T21:35:10.500Z,77.40
2017-11-24T21:37:38.054Z,77.60
2017-11-24T21:40:06.385Z,77.60
2017-11-24T21:42:33.901Z,77.60
2017-11-24T21:45:01.446Z,78.40
2017-11-24T21:47:29.006Z,77.80
2017-11-24T21:49:56.559Z,77.50
2017-11-24T21:52:24.044Z,77.40
2017-11-24T21:54:52.331Z,77.20
2017-11-24T21:57:20.599Z,77.50
2017-11-24T21:59:48.885Z,77.10
2017-11-24T22:02:17.132Z,76.30
2017-11-24T22:04:44.668Z,76.30
2017-11-24T22:07:12.172Z,76.70
2017-11-24T22:09:39.679Z,76.70
2017-11-24T22:12:07.206Z,77.10
2017-11-24T22:14:34.720Z,76.80
2017-11-24T22:17:02.249Z,76.50
2017-11-24T22:19:29.749Z,76.50
2017-11-24T22:21:58.052Z,76.80
2017-11-24T22:24:25.574Z,76.70
2017-11-24T22:26:53.059Z,76.70
2017-11-24T22:29:20.585Z,77.10
2017-11-24T22:31:48.081Z,77.20
2017-11-24T22:34:15.577Z,77.30
2017-11-24T22:36:43.103Z,77.00
2017-11-24T22:39:10.597Z,77.30
2017-11-24T22:41:38.108Z,77.30
2017-11-24T22:44:05.644Z,76.90
2017-11-24T22:46:33.928Z,76.80
2017-11-24T22:49:01.416Z,76.80
2017-11-24T22:51:28.943Z,76.80
2017-11-24T22:53:56.454Z,76.50
2017-11-24T22:56:23.991Z,76.70
2017-11-24T22:58:51.515Z,76.80
2017-11-24T23:01:19.024Z,76.50
2017-11-24T23:03:46.520Z,77.10
2017-11-24T23:06:14.806Z,76.70
2017-11-24T23:08:42.336Z,76.70
2017-11-24T23:11:10.596Z,76.10
2017-11-24T23:13:38.122Z,76.10
2017-11-24T23:16:05.617Z,76.30
2017-11-24T23:18:33.107Z,76.70
2017-11-24T23:21:00.634Z,76.60
2017-11-24T23:23:28.129Z,77.00
2017-11-24T23:25:55.677Z,76.90
2017-11-24T23:28:23.943Z,77.70
2017-11-24T23:30:52.226Z,78.30
2017-11-24T23:33:20.510Z,78.30
2017-11-24T23:35:48.037Z,78.30
2017-11-24T23:38:15.578Z,78.50
2017-11-24T23:40:43.070Z,78.50
2017-11-24T23:43:10.620Z,78.90
2017-11-24T23:45:38.935Z,78.90
2017-11-24T23:48:06.432Z,78.90
2017-11-24T23:50:33.925Z,78.80
2017-11-24T23:53:01.479Z,79.40
2017-11-24T23:55:28.982Z,79.00
2017-11-24T23:57:56.478Z,78.90
